sensor_id;sensor_type;location;lat;lon;timestamp;noise_LAeq;noise_LA_min;noise_LA_max;noise_LA01;noise_LA95
37279;Laerm;7458;49.002;8.472;2024-02-14T00:01:45;62.33;41.61;73.69;;
37279;Laerm;7458;49.002;8.472;2024-02-14T00:04:11;62.35;41.81;73.71;;
37279;Laerm;7458;49.002;8.472;2024-02-14T00:06:39;63.15;40.98;76.84;;
37279;Laerm;7458;49.002;8.472;2024-02-14T00:09:05;62.43;41.38;73.63;;
37279;Laerm;7458;49.002;8.472;2024-02-14T00:11:32;62.33;40.98;73.67;;
37279;Laerm;7458;49.002;8.472;2024-02-14T00:13:58;62.33;41.06;73.66;;
37279;Laerm;7458;49.002;8.472;2024-02-14T00:16:27;62.31;41.22;73.78;;
37279;Laerm;7458;49.002;8.472;2024-02-14T00:18:56;62.30;40.98;73.61;;
37279;Laerm;7458;49.002;8.472;2024-02-14T00:21:23;62.38;41.38;73.62;;
37279;Laerm;7458;49.002;8.472;2024-02-14T00:23:50;62.40;41.46;73.67;;
37279;Laerm;7458;49.002;8.472;2024-02-14T00:26:16;62.50;41.82;73.88;;
37279;Laerm;7458;49.002;8.472;2024-02-14T00:28:42;62.42;41.38;73.93;;
37279;Laerm;7458;49.002;8.472;2024-02-14T00:31:09;62.46;41.61;73.79;;
37279;Laerm;7458;49.002;8.472;2024-02-14T00:33:40;62.31;41.38;73.81;;
37279;Laerm;7458;49.002;8.472;2024-02-14T00:36:07;62.36;42.53;73.84;;
37279;Laerm;7458;49.002;8.472;2024-02-14T00:38:33;62.45;42.03;73.77;;
37279;Laerm;7458;49.002;8.472;2024-02-14T00:40:59;62.45;41.89;73.88;;
37279;Laerm;7458;49.002;8.472;2024-02-14T00:43:26;62.48;41.38;73.71;;
37279;Laerm;7458;49.002;8.472;2024-02-14T00:45:51;62.50;42.03;73.72;;
37279;Laerm;7458;49.002;8.472;2024-02-14T00:48:17;62.33;42.71;73.64;;
37279;Laerm;7458;49.002;8.472;2024-02-14T00:50:43;62.48;42.47;73.97;;
37279;Laerm;7458;49.002;8.472;2024-02-14T00:53:10;62.51;42.03;73.92;;
37279;Laerm;7458;49.002;8.472;2024-02-14T00:55:36;62.49;41.61;73.82;;
37279;Laerm;7458;49.002;8.472;2024-02-14T00:58:03;62.43;41.61;73.81;;
37279;Laerm;7458;49.002;8.472;2024-02-14T01:00:29;62.53;40.23;73.77;;
37279;Laerm;7458;49.002;8.472;2024-02-14T01:02:55;62.42;40.71;74.05;;
37279;Laerm;7458;49.002;8.472;2024-02-14T01:05:23;62.47;40.98;73.81;;
37279;Laerm;7458;49.002;8.472;2024-02-14T01:07:50;62.51;40.80;73.93;;
37279;Laerm;7458;49.002;8.472;2024-02-14T01:10:16;62.54;41.06;73.76;;
37279;Laerm;7458;49.002;8.472;2024-02-14T01:12:44;62.52;40.23;73.87;;
37279;Laerm;7458;49.002;8.472;2024-02-14T01:15:10;62.45;41.06;73.89;;
37279;Laerm;7458;49.002;8.472;2024-02-14T01:17:37;62.46;41.68;73.76;;
37279;Laerm;7458;49.002;8.472;2024-02-14T01:20:05;62.35;41.30;73.86;;
37279;Laerm;7458;49.002;8.472;2024-02-14T01:22:33;62.36;41.14;74.08;;
37279;Laerm;7458;49.002;8.472;2024-02-14T01:25:00;62.40;40.62;73.88;;
37279;Laerm;7458;49.002;8.472;2024-02-14T01:27:26;62.42;42.47;73.94;;
37279;Laerm;7458;49.002;8.472;2024-02-14T01:29:54;62.43;42.22;74.11;;
37279;Laerm;7458;49.002;8.472;2024-02-14T01:32:21;62.46;42.93;73.97;;
37279;Laerm;7458;49.002;8.472;2024-02-14T01:34:47;62.42;41.75;74.12;;
37279;Laerm;7458;49.002;8.472;2024-02-14T01:37:13;62.41;41.61;73.87;;
37279;Laerm;7458;49.002;8.472;2024-02-14T01:39:39;62.47;41.46;73.70;;
37279;Laerm;7458;49.002;8.472;2024-02-14T01:42:05;62.52;42.59;73.90;;
37279;Laerm;7458;49.002;8.472;2024-02-14T01:44:33;62.41;43.09;73.88;;
37279;Laerm;7458;49.002;8.472;2024-02-14T01:47:00;62.35;43.44;73.89;;
37279;Laerm;7458;49.002;8.472;2024-02-14T01:49:27;62.40;42.88;74.01;;
37279;Laerm;7458;49.002;8.472;2024-02-14T01:51:59;62.24;43.39;74.08;;
37279;Laerm;7458;49.002;8.472;2024-02-14T01:54:28;62.23;42.41;73.79;;
37279;Laerm;7458;49.002;8.472;2024-02-14T01:56:57;62.20;43.94;73.94;;
37279;Laerm;7458;49.002;8.472;2024-02-14T01:59:25;62.27;43.24;73.70;;
37279;Laerm;7458;49.002;8.472;2024-02-14T02:01:52;62.15;44.03;73.83;;
37279;Laerm;7458;49.002;8.472;2024-02-14T02:04:18;62.38;43.99;73.92;;
37279;Laerm;7458;49.002;8.472;2024-02-14T02:06:45;62.28;44.65;73.79;;
37279;Laerm;7458;49.002;8.472;2024-02-14T02:09:11;62.18;43.90;73.69;;
37279;Laerm;7458;49.002;8.472;2024-02-14T02:11:46;61.98;44.69;73.75;;
37279;Laerm;7458;49.002;8.472;2024-02-14T02:14:14;62.02;44.31;73.92;;
37279;Laerm;7458;49.002;8.472;2024-02-14T02:16:40;62.20;43.99;73.66;;
37279;Laerm;7458;49.002;8.472;2024-02-14T02:19:07;62.19;43.63;73.67;;
37279;Laerm;7458;49.002;8.472;2024-02-14T02:21:35;62.13;43.34;73.69;;
37279;Laerm;7458;49.002;8.472;2024-02-14T02:24:02;62.23;43.72;73.81;;
37279;Laerm;7458;49.002;8.472;2024-02-14T02:26:28;62.25;43.72;73.62;;
37279;Laerm;7458;49.002;8.472;2024-02-14T02:28:54;62.35;45.07;73.61;;
37279;Laerm;7458;49.002;8.472;2024-02-14T02:31:21;62.25;43.86;73.68;;
37279;Laerm;7458;49.002;8.472;2024-02-14T02:33:47;62.24;43.81;73.77;;
37279;Laerm;7458;49.002;8.472;2024-02-14T02:36:13;62.23;43.54;73.59;;
37279;Laerm;7458;49.002;8.472;2024-02-14T02:38:42;62.25;44.27;73.62;;
37279;Laerm;7458;49.002;8.472;2024-02-14T02:41:08;62.34;43.44;73.59;;
37279;Laerm;7458;49.002;8.472;2024-02-14T02:43:35;62.28;44.15;73.66;;
37279;Laerm;7458;49.002;8.472;2024-02-14T02:46:01;62.31;44.69;73.70;;
37279;Laerm;7458;49.002;8.472;2024-02-14T02:48:27;62.38;43.63;73.64;;
37279;Laerm;7458;49.002;8.472;2024-02-14T02:50:53;62.39;44.15;73.99;;
37279;Laerm;7458;49.002;8.472;2024-02-14T02:53:20;62.36;43.94;73.62;;
37279;Laerm;7458;49.002;8.472;2024-02-14T02:55:46;62.31;44.58;73.74;;
37279;Laerm;7458;49.002;8.472;2024-02-14T02:58:13;62.19;43.90;73.58;;
37279;Laerm;7458;49.002;8.472;2024-02-14T03:00:40;62.28;44.03;73.74;;
37279;Laerm;7458;49.002;8.472;2024-02-14T03:03:08;62.34;45.14;73.70;;
37279;Laerm;7458;49.002;8.472;2024-02-14T03:05:34;62.29;44.39;73.77;;
37279;Laerm;7458;49.002;8.472;2024-02-14T03:08:01;62.51;45.57;73.75;;
37279;Laerm;7458;49.002;8.472;2024-02-14T03:10:27;62.59;46.25;73.66;;
37279;Laerm;7458;49.002;8.472;2024-02-14T03:12:54;62.49;45.57;73.58;;
37279;Laerm;7458;49.002;8.472;2024-02-14T03:15:21;62.50;43.94;73.63;;
37279;Laerm;7458;49.002;8.472;2024-02-14T03:17:47;62.54;44.87;73.77;;
37279;Laerm;7458;49.002;8.472;2024-02-14T03:20:13;62.50;45.27;73.69;;
37279;Laerm;7458;49.002;8.472;2024-02-14T03:22:40;62.40;43.99;73.81;;
37279;Laerm;7458;49.002;8.472;2024-02-14T03:25:18;61.99;44.39;73.69;;
37279;Laerm;7458;49.002;8.472;2024-02-14T03:27:44;62.35;44.83;73.70;;
37279;Laerm;7458;49.002;8.472;2024-02-14T03:30:17;62.19;43.99;73.66;;
37279;Laerm;7458;49.002;8.472;2024-02-14T03:32:43;62.30;44.23;73.76;;
37279;Laerm;7458;49.002;8.472;2024-02-14T03:35:10;62.33;44.80;73.97;;
37279;Laerm;7458;49.002;8.472;2024-02-14T03:37:37;62.46;44.87;73.53;;
37279;Laerm;7458;49.002;8.472;2024-02-14T03:40:05;62.58;46.10;73.58;;
37279;Laerm;7458;49.002;8.472;2024-02-14T03:42:33;62.61;45.14;73.84;;
37279;Laerm;7458;49.002;8.472;2024-02-14T03:45:00;62.37;44.49;73.79;;
37279;Laerm;7458;49.002;8.472;2024-02-14T03:47:32;62.53;44.80;74.00;;
37279;Laerm;7458;49.002;8.472;2024-02-14T03:49:59;62.98;44.76;74.78;;
37279;Laerm;7458;49.002;8.472;2024-02-14T03:52:25;62.43;44.23;73.64;;
37279;Laerm;7458;49.002;8.472;2024-02-14T03:54:52;62.56;45.36;73.74;;
37279;Laerm;7458;49.002;8.472;2024-02-14T03:57:18;62.46;45.45;73.76;;
37279;Laerm;7458;49.002;8.472;2024-02-14T03:59:45;62.46;45.66;73.97;;
37279;Laerm;7458;49.002;8.472;2024-02-14T04:02:12;62.20;44.83;73.64;;
37279;Laerm;7458;49.002;8.472;2024-02-14T04:04:42;62.29;44.54;73.85;;
37279;Laerm;7458;49.002;8.472;2024-02-14T04:07:08;62.62;44.97;73.84;;
37279;Laerm;7458;49.002;8.472;2024-02-14T04:09:35;62.86;46.45;73.78;;
37279;Laerm;7458;49.002;8.472;2024-02-14T04:12:01;62.77;45.83;73.92;;
37279;Laerm;7458;49.002;8.472;2024-02-14T04:14:27;62.71;44.94;73.79;;
37279;Laerm;7458;49.002;8.472;2024-02-14T04:16:54;62.71;45.33;73.88;;
37279;Laerm;7458;49.002;8.472;2024-02-14T04:19:20;63.34;45.11;75.93;;
37279;Laerm;7458;49.002;8.472;2024-02-14T04:21:46;62.67;45.17;73.94;;
37279;Laerm;7458;49.002;8.472;2024-02-14T04:24:13;62.61;45.36;74.00;;
37279;Laerm;7458;49.002;8.472;2024-02-14T04:26:39;62.61;45.20;73.96;;
37279;Laerm;7458;49.002;8.472;2024-02-14T04:29:05;62.68;45.57;74.04;;
37279;Laerm;7458;49.002;8.472;2024-02-14T04:31:31;63.71;45.97;77.09;;
37279;Laerm;7458;49.002;8.472;2024-02-14T04:33:58;62.65;46.23;73.85;;
37279;Laerm;7458;49.002;8.472;2024-02-14T04:36:24;62.69;45.91;73.84;;
37279;Laerm;7458;49.002;8.472;2024-02-14T04:38:50;63.27;46.89;76.43;;
37279;Laerm;7458;49.002;8.472;2024-02-14T04:41:17;62.95;48.64;73.81;;
37279;Laerm;7458;49.002;8.472;2024-02-14T04:43:44;62.92;48.80;74.24;;
37279;Laerm;7458;49.002;8.472;2024-02-14T04:46:10;62.88;48.87;74.03;;
37279;Laerm;7458;49.002;8.472;2024-02-14T04:48:36;65.56;50.07;82.83;;
37279;Laerm;7458;49.002;8.472;2024-02-14T04:51:05;62.86;48.67;73.90;;
37279;Laerm;7458;49.002;8.472;2024-02-14T04:53:33;63.16;48.42;74.06;;
37279;Laerm;7458;49.002;8.472;2024-02-14T04:56:00;62.99;49.77;73.94;;
37279;Laerm;7458;49.002;8.472;2024-02-14T04:58:26;62.91;49.00;73.90;;
37279;Laerm;7458;49.002;8.472;2024-02-14T05:00:53;62.80;47.72;74.05;;
37279;Laerm;7458;49.002;8.472;2024-02-14T05:03:20;62.92;47.22;74.14;;
37279;Laerm;7458;49.002;8.472;2024-02-14T05:05:47;62.88;48.40;73.86;;
37279;Laerm;7458;49.002;8.472;2024-02-14T05:08:13;63.63;49.06;75.99;;
37279;Laerm;7458;49.002;8.472;2024-02-14T05:10:39;63.08;49.46;73.85;;
37279;Laerm;7458;49.002;8.472;2024-02-14T05:13:05;63.30;49.63;76.35;;
37279;Laerm;7458;49.002;8.472;2024-02-14T05:15:31;63.31;48.60;73.95;;
37279;Laerm;7458;49.002;8.472;2024-02-14T05:17:58;63.20;50.50;73.97;;
37279;Laerm;7458;49.002;8.472;2024-02-14T05:20:24;67.30;51.97;83.84;;
37279;Laerm;7458;49.002;8.472;2024-02-14T05:22:50;66.49;51.11;81.74;;
37279;Laerm;7458;49.002;8.472;2024-02-14T05:25:16;64.19;52.03;75.28;;
37279;Laerm;7458;49.002;8.472;2024-02-14T05:27:42;63.61;51.56;76.06;;
37279;Laerm;7458;49.002;8.472;2024-02-14T05:30:08;63.53;50.77;85.32;;
37279;Laerm;7458;49.002;8.472;2024-02-14T05:32:35;62.85;50.00;74.24;;
37279;Laerm;7458;49.002;8.472;2024-02-14T05:35:01;63.69;51.03;73.89;;
37279;Laerm;7458;49.002;8.472;2024-02-14T05:37:31;62.70;48.81;73.91;;
37279;Laerm;7458;49.002;8.472;2024-02-14T05:39:57;62.89;49.10;74.18;;
37279;Laerm;7458;49.002;8.472;2024-02-14T05:42:23;63.04;49.72;73.92;;
37279;Laerm;7458;49.002;8.472;2024-02-14T05:44:50;63.27;48.46;73.87;;
37279;Laerm;7458;49.002;8.472;2024-02-14T05:47:18;63.32;49.04;74.20;;
37279;Laerm;7458;49.002;8.472;2024-02-14T05:49:44;63.74;49.97;75.44;;
37279;Laerm;7458;49.002;8.472;2024-02-14T05:52:10;63.10;48.81;74.30;;
37279;Laerm;7458;49.002;8.472;2024-02-14T05:54:36;62.83;47.77;74.09;;
37279;Laerm;7458;49.002;8.472;2024-02-14T05:57:04;63.08;48.40;73.86;;
37279;Laerm;7458;49.002;8.472;2024-02-14T05:59:30;62.90;49.40;73.92;;
37279;Laerm;7458;49.002;8.472;2024-02-14T06:01:56;63.09;48.08;74.01;;
37279;Laerm;7458;49.002;8.472;2024-02-14T06:04:23;62.80;47.22;73.89;;
37279;Laerm;7458;49.002;8.472;2024-02-14T06:06:49;62.88;47.73;74.00;;
37279;Laerm;7458;49.002;8.472;2024-02-14T06:09:15;62.77;47.37;74.72;;
37279;Laerm;7458;49.002;8.472;2024-02-14T06:11:41;63.77;47.74;74.51;;
37279;Laerm;7458;49.002;8.472;2024-02-14T06:14:09;63.13;47.48;73.84;;
37279;Laerm;7458;49.002;8.472;2024-02-14T06:16:35;63.82;47.95;74.05;;
37279;Laerm;7458;49.002;8.472;2024-02-14T06:19:01;62.85;46.69;74.22;;
37279;Laerm;7458;49.002;8.472;2024-02-14T06:21:30;63.21;47.42;74.08;;
37279;Laerm;7458;49.002;8.472;2024-02-14T06:23:56;63.00;48.18;74.08;;
37279;Laerm;7458;49.002;8.472;2024-02-14T06:26:24;62.83;46.73;73.92;;
37279;Laerm;7458;49.002;8.472;2024-02-14T06:28:50;63.25;47.81;73.98;;
37279;Laerm;7458;49.002;8.472;2024-02-14T06:31:21;62.82;47.10;73.96;;
37279;Laerm;7458;49.002;8.472;2024-02-14T06:33:47;63.10;47.65;73.86;;
37279;Laerm;7458;49.002;8.472;2024-02-14T06:36:14;63.78;49.46;74.06;;
37279;Laerm;7458;49.002;8.472;2024-02-14T06:38:40;63.34;48.87;74.15;;
37279;Laerm;7458;49.002;8.472;2024-02-14T06:41:06;63.36;49.40;74.22;;
37279;Laerm;7458;49.002;8.472;2024-02-14T06:43:32;63.07;48.84;74.00;;
37279;Laerm;7458;49.002;8.472;2024-02-14T06:45:58;63.28;47.52;75.10;;
37279;Laerm;7458;49.002;8.472;2024-02-14T06:48:24;63.18;48.84;73.77;;
37279;Laerm;7458;49.002;8.472;2024-02-14T06:50:51;63.17;47.98;74.00;;
37279;Laerm;7458;49.002;8.472;2024-02-14T06:53:17;63.20;46.73;73.83;;
37279;Laerm;7458;49.002;8.472;2024-02-14T06:55:44;63.39;46.28;74.05;;
37279;Laerm;7458;49.002;8.472;2024-02-14T06:58:10;63.36;46.89;73.85;;
37279;Laerm;7458;49.002;8.472;2024-02-14T07:00:36;63.49;46.25;76.27;;
37279;Laerm;7458;49.002;8.472;2024-02-14T07:03:03;64.07;47.50;77.08;;
37279;Laerm;7458;49.002;8.472;2024-02-14T07:05:29;63.44;47.93;74.15;;
37279;Laerm;7458;49.002;8.472;2024-02-14T07:07:56;63.12;46.73;74.05;;
37279;Laerm;7458;49.002;8.472;2024-02-14T07:10:22;63.51;46.43;78.04;;
37279;Laerm;7458;49.002;8.472;2024-02-14T07:12:48;63.39;47.40;74.05;;
37279;Laerm;7458;49.002;8.472;2024-02-14T07:15:14;63.16;47.26;74.18;;
37279;Laerm;7458;49.002;8.472;2024-02-14T07:17:41;63.38;47.26;74.16;;
37279;Laerm;7458;49.002;8.472;2024-02-14T07:20:07;63.19;47.52;73.93;;
37279;Laerm;7458;49.002;8.472;2024-02-14T07:22:36;63.37;46.40;74.88;;
37279;Laerm;7458;49.002;8.472;2024-02-14T07:25:02;63.35;45.99;73.86;;
37279;Laerm;7458;49.002;8.472;2024-02-14T07:27:31;62.80;45.11;74.21;;
37279;Laerm;7458;49.002;8.472;2024-02-14T07:29:56;63.33;46.28;73.91;;
37279;Laerm;7458;49.002;8.472;2024-02-14T07:32:22;63.57;45.91;75.24;;
37279;Laerm;7458;49.002;8.472;2024-02-14T07:34:49;63.36;46.25;79.74;;
37279;Laerm;7458;49.002;8.472;2024-02-14T07:37:15;63.53;45.57;74.42;;
37279;Laerm;7458;49.002;8.472;2024-02-14T07:39:44;63.04;45.27;74.34;;
37279;Laerm;7458;49.002;8.472;2024-02-14T07:42:10;63.66;46.18;75.38;;
37279;Laerm;7458;49.002;8.472;2024-02-14T07:44:36;62.80;46.38;74.11;;
37279;Laerm;7458;49.002;8.472;2024-02-14T07:47:02;63.12;46.23;74.08;;
37279;Laerm;7458;49.002;8.472;2024-02-14T07:49:29;62.99;45.99;74.14;;
37279;Laerm;7458;49.002;8.472;2024-02-14T07:51:55;63.33;46.02;74.22;;
37279;Laerm;7458;49.002;8.472;2024-02-14T07:54:21;63.11;45.36;73.98;;
37279;Laerm;7458;49.002;8.472;2024-02-14T07:56:47;63.37;46.91;73.92;;
37279;Laerm;7458;49.002;8.472;2024-02-14T07:59:13;63.90;46.54;75.23;;
37279;Laerm;7458;49.002;8.472;2024-02-14T08:01:39;63.13;45.94;73.87;;
37279;Laerm;7458;49.002;8.472;2024-02-14T08:04:05;62.91;45.54;74.16;;
37279;Laerm;7458;49.002;8.472;2024-02-14T08:06:31;63.95;45.17;76.93;;
37279;Laerm;7458;49.002;8.472;2024-02-14T08:08:57;62.89;45.11;73.87;;
37279;Laerm;7458;49.002;8.472;2024-02-14T08:11:28;63.27;44.23;74.36;;
37279;Laerm;7458;49.002;8.472;2024-02-14T08:13:55;63.23;45.39;74.28;;
37279;Laerm;7458;49.002;8.472;2024-02-14T08:16:20;62.69;44.83;74.10;;
37279;Laerm;7458;49.002;8.472;2024-02-14T08:18:46;63.74;45.04;80.10;;
37279;Laerm;7458;49.002;8.472;2024-02-14T08:21:14;62.98;45.39;76.86;;
37279;Laerm;7458;49.002;8.472;2024-02-14T08:23:40;62.77;44.80;74.16;;
37279;Laerm;7458;49.002;8.472;2024-02-14T08:26:07;63.30;44.19;75.06;;
37279;Laerm;7458;49.002;8.472;2024-02-14T08:28:37;62.97;45.04;74.27;;
37279;Laerm;7458;49.002;8.472;2024-02-14T08:31:09;63.00;44.90;74.14;;
37279;Laerm;7458;49.002;8.472;2024-02-14T08:33:35;63.53;44.51;81.60;;
37279;Laerm;7458;49.002;8.472;2024-02-14T08:36:05;62.76;43.94;74.42;;
37279;Laerm;7458;49.002;8.472;2024-02-14T08:38:32;65.20;45.63;82.00;;
37279;Laerm;7458;49.002;8.472;2024-02-14T08:40:58;63.29;44.58;80.66;;
37279;Laerm;7458;49.002;8.472;2024-02-14T08:43:24;64.04;44.76;74.45;;
37279;Laerm;7458;49.002;8.472;2024-02-14T08:45:51;63.12;43.86;74.09;;
37279;Laerm;7458;49.002;8.472;2024-02-14T08:48:18;63.34;45.27;75.15;;
37279;Laerm;7458;49.002;8.472;2024-02-14T08:50:45;63.14;43.63;74.12;;
37279;Laerm;7458;49.002;8.472;2024-02-14T08:53:12;63.66;43.99;78.85;;
37279;Laerm;7458;49.002;8.472;2024-02-14T08:55:40;63.05;44.03;73.92;;
37279;Laerm;7458;49.002;8.472;2024-02-14T08:58:06;63.43;44.54;74.05;;
37279;Laerm;7458;49.002;8.472;2024-02-14T09:00:35;62.89;42.71;74.04;;
37279;Laerm;7458;49.002;8.472;2024-02-14T09:03:03;62.53;44.23;73.96;;
37279;Laerm;7458;49.002;8.472;2024-02-14T09:05:30;63.28;44.35;76.59;;
37279;Laerm;7458;49.002;8.472;2024-02-14T09:07:56;63.27;45.45;74.05;;
37279;Laerm;7458;49.002;8.472;2024-02-14T09:10:23;62.91;45.04;73.81;;
37279;Laerm;7458;49.002;8.472;2024-02-14T09:12:49;63.21;44.65;73.95;;
37279;Laerm;7458;49.002;8.472;2024-02-14T09:15:15;62.64;44.23;74.10;;
37279;Laerm;7458;49.002;8.472;2024-02-14T09:17:42;63.51;44.47;73.90;;
37279;Laerm;7458;49.002;8.472;2024-02-14T09:20:09;65.04;43.77;78.84;;
37279;Laerm;7458;49.002;8.472;2024-02-14T09:22:36;63.05;44.94;73.90;;
37279;Laerm;7458;49.002;8.472;2024-02-14T09:25:03;62.34;44.94;73.91;;
37279;Laerm;7458;49.002;8.472;2024-02-14T09:27:32;62.65;44.73;75.01;;
37279;Laerm;7458;49.002;8.472;2024-02-14T09:29:59;62.19;44.80;74.01;;
37279;Laerm;7458;49.002;8.472;2024-02-14T09:32:25;62.56;45.01;73.74;;
37279;Laerm;7458;49.002;8.472;2024-02-14T09:34:51;62.30;44.47;73.73;;
37279;Laerm;7458;49.002;8.472;2024-02-14T09:37:17;63.34;45.11;74.04;;
37279;Laerm;7458;49.002;8.472;2024-02-14T09:39:44;65.81;44.35;78.62;;
37279;Laerm;7458;49.002;8.472;2024-02-14T09:42:13;62.69;44.38;74.73;;
37279;Laerm;7458;49.002;8.472;2024-02-14T09:44:41;63.14;44.19;74.11;;
37279;Laerm;7458;49.002;8.472;2024-02-14T09:47:09;62.86;44.23;73.91;;
37279;Laerm;7458;49.002;8.472;2024-02-14T09:49:36;62.89;44.19;75.10;;
37279;Laerm;7458;49.002;8.472;2024-02-14T09:52:03;62.35;44.27;74.20;;
37279;Laerm;7458;49.002;8.472;2024-02-14T09:54:31;63.52;44.43;80.42;;
37279;Laerm;7458;49.002;8.472;2024-02-14T09:56:59;62.58;43.81;74.28;;
37279;Laerm;7458;49.002;8.472;2024-02-14T09:59:24;62.21;43.68;74.19;;
37279;Laerm;7458;49.002;8.472;2024-02-14T10:01:51;62.33;45.01;75.13;;
37279;Laerm;7458;49.002;8.472;2024-02-14T10:04:18;62.67;44.87;74.45;;
37279;Laerm;7458;49.002;8.472;2024-02-14T10:06:45;62.89;45.11;74.49;;
37279;Laerm;7458;49.002;8.472;2024-02-14T10:09:11;67.69;44.83;85.30;;
37279;Laerm;7458;49.002;8.472;2024-02-14T10:11:37;62.07;44.47;74.13;;
37279;Laerm;7458;49.002;8.472;2024-02-14T10:14:06;62.58;44.47;74.03;;
37279;Laerm;7458;49.002;8.472;2024-02-14T10:16:35;65.66;44.23;85.36;;
37279;Laerm;7458;49.002;8.472;2024-02-14T10:19:02;62.91;44.83;74.55;;
37279;Laerm;7458;49.002;8.472;2024-02-14T10:21:29;62.36;44.73;74.20;;
37279;Laerm;7458;49.002;8.472;2024-02-14T10:24:01;61.83;44.69;74.21;;
37279;Laerm;7458;49.002;8.472;2024-02-14T10:26:29;62.51;45.20;73.98;;
37279;Laerm;7458;49.002;8.472;2024-02-14T10:28:57;63.41;45.23;74.38;;
37279;Laerm;7458;49.002;8.472;2024-02-14T10:31:26;62.39;44.39;74.09;;
37279;Laerm;7458;49.002;8.472;2024-02-14T10:33:56;66.87;44.07;92.64;;
37279;Laerm;7458;49.002;8.472;2024-02-14T10:36:22;63.32;44.69;84.60;;
37279;Laerm;7458;49.002;8.472;2024-02-14T10:38:50;64.47;46.40;80.20;;
37279;Laerm;7458;49.002;8.472;2024-02-14T10:41:19;64.73;45.60;80.09;;
37279;Laerm;7458;49.002;8.472;2024-02-14T10:43:45;62.71;44.94;76.59;;
37279;Laerm;7458;49.002;8.472;2024-02-14T10:46:20;62.07;45.48;73.97;;
37279;Laerm;7458;49.002;8.472;2024-02-14T10:48:56;62.04;45.07;73.98;;
37279;Laerm;7458;49.002;8.472;2024-02-14T10:51:33;61.74;44.35;76.65;;
37279;Laerm;7458;49.002;8.472;2024-02-14T10:54:10;61.19;43.77;73.85;;
37279;Laerm;7458;49.002;8.472;2024-02-14T10:56:42;62.11;44.87;74.01;;
37279;Laerm;7458;49.002;8.472;2024-02-14T10:59:13;62.26;45.69;74.26;;
37279;Laerm;7458;49.002;8.472;2024-02-14T11:01:42;62.03;45.23;74.05;;
37279;Laerm;7458;49.002;8.472;2024-02-14T11:04:09;63.86;46.07;79.70;;
37279;Laerm;7458;49.002;8.472;2024-02-14T11:06:48;61.78;45.27;74.07;;
37279;Laerm;7458;49.002;8.472;2024-02-14T11:09:15;61.81;45.07;73.92;;
37279;Laerm;7458;49.002;8.472;2024-02-14T11:11:44;62.07;45.77;81.75;;
37279;Laerm;7458;49.002;8.472;2024-02-14T11:14:23;62.30;44.80;75.82;;
37279;Laerm;7458;49.002;8.472;2024-02-14T11:16:52;61.39;44.73;74.04;;
37279;Laerm;7458;49.002;8.472;2024-02-14T11:19:18;62.04;45.72;82.81;;
37279;Laerm;7458;49.002;8.472;2024-02-14T11:21:46;61.59;45.01;74.00;;
37279;Laerm;7458;49.002;8.472;2024-02-14T11:24:15;61.30;44.54;74.04;;
37279;Laerm;7458;49.002;8.472;2024-02-14T11:26:49;62.42;44.69;84.21;;
37279;Laerm;7458;49.002;8.472;2024-02-14T11:29:17;60.95;46.07;74.12;;
37279;Laerm;7458;49.002;8.472;2024-02-14T11:31:45;61.57;46.29;77.25;;
37279;Laerm;7458;49.002;8.472;2024-02-14T11:34:14;62.31;44.51;76.38;;
37279;Laerm;7458;49.002;8.472;2024-02-14T11:36:45;61.13;44.12;74.15;;
37279;Laerm;7458;49.002;8.472;2024-02-14T11:39:11;61.92;43.90;74.58;;
37279;Laerm;7458;49.002;8.472;2024-02-14T11:41:40;61.66;44.43;80.77;;
37279;Laerm;7458;49.002;8.472;2024-02-14T11:44:08;61.38;44.94;81.22;;
37279;Laerm;7458;49.002;8.472;2024-02-14T11:46:36;58.87;44.15;74.53;;
37279;Laerm;7458;49.002;8.472;2024-02-14T11:49:04;55.21;45.36;71.17;;
37279;Laerm;7458;49.002;8.472;2024-02-14T11:51:33;54.34;45.99;69.50;;
37279;Laerm;7458;49.002;8.472;2024-02-14T11:54:00;53.71;45.75;72.09;;
37279;Laerm;7458;49.002;8.472;2024-02-14T11:56:34;55.73;45.69;76.49;;
37279;Laerm;7458;49.002;8.472;2024-02-14T11:59:02;55.09;45.69;70.37;;
37279;Laerm;7458;49.002;8.472;2024-02-14T12:01:33;54.29;45.54;71.24;;
37279;Laerm;7458;49.002;8.472;2024-02-14T12:04:04;55.77;44.90;73.05;;
37279;Laerm;7458;49.002;8.472;2024-02-14T12:06:32;55.04;44.54;69.90;;
37279;Laerm;7458;49.002;8.472;2024-02-14T12:09:02;54.24;45.48;70.13;;
37279;Laerm;7458;49.002;8.472;2024-02-14T12:11:32;55.40;44.94;73.64;;
37279;Laerm;7458;49.002;8.472;2024-02-14T12:14:05;51.79;44.39;74.07;;
37279;Laerm;7458;49.002;8.472;2024-02-14T12:16:31;56.67;44.58;73.44;;
37279;Laerm;7458;49.002;8.472;2024-02-14T12:19:09;55.25;44.27;73.01;;
37279;Laerm;7458;49.002;8.472;2024-02-14T12:21:37;50.67;43.99;64.02;;
37279;Laerm;7458;49.002;8.472;2024-02-14T12:24:11;53.13;44.73;68.85;;
37279;Laerm;7458;49.002;8.472;2024-02-14T12:26:39;53.41;43.94;69.85;;
37279;Laerm;7458;49.002;8.472;2024-02-14T12:29:06;58.46;44.54;73.73;;
37279;Laerm;7458;49.002;8.472;2024-02-14T12:31:34;57.10;44.51;72.97;;
37279;Laerm;7458;49.002;8.472;2024-02-14T12:34:02;50.32;44.43;63.06;;
37279;Laerm;7458;49.002;8.472;2024-02-14T12:36:33;53.81;44.47;73.09;;
37279;Laerm;7458;49.002;8.472;2024-02-14T12:39:00;57.99;45.80;72.58;;
37279;Laerm;7458;49.002;8.472;2024-02-14T12:41:28;51.83;44.62;69.13;;
37279;Laerm;7458;49.002;8.472;2024-02-14T12:43:58;55.68;44.76;73.87;;
37279;Laerm;7458;49.002;8.472;2024-02-14T12:46:24;56.05;43.72;73.91;;
37279;Laerm;7458;49.002;8.472;2024-02-14T12:48:50;54.59;45.36;77.64;;
37279;Laerm;7458;49.002;8.472;2024-02-14T12:51:17;52.96;45.17;71.01;;
37279;Laerm;7458;49.002;8.472;2024-02-14T12:53:43;52.82;43.81;73.77;;
37279;Laerm;7458;49.002;8.472;2024-02-14T12:56:09;55.37;44.65;74.16;;
37279;Laerm;7458;49.002;8.472;2024-02-14T12:58:35;54.19;43.86;74.05;;
37279;Laerm;7458;49.002;8.472;2024-02-14T13:01:02;55.93;44.19;72.55;;
37279;Laerm;7458;49.002;8.472;2024-02-14T13:03:34;56.14;46.57;73.99;;
37279;Laerm;7458;49.002;8.472;2024-02-14T13:06:01;56.65;47.54;74.22;;
37279;Laerm;7458;49.002;8.472;2024-02-14T13:08:27;58.11;49.55;73.99;;
37279;Laerm;7458;49.002;8.472;2024-02-14T13:10:53;54.65;48.92;73.90;;
37279;Laerm;7458;49.002;8.472;2024-02-14T13:13:20;59.03;48.89;74.28;;
37279;Laerm;7458;49.002;8.472;2024-02-14T13:15:46;57.74;48.12;73.95;;
37279;Laerm;7458;49.002;8.472;2024-02-14T13:18:12;57.06;47.77;74.38;;
37279;Laerm;7458;49.002;8.472;2024-02-14T13:20:38;82.63;49.75;106.95;;
37279;Laerm;7458;49.002;8.472;2024-02-14T13:23:04;59.37;44.35;75.75;;
37279;Laerm;7458;49.002;8.472;2024-02-14T13:25:34;58.84;44.69;74.57;;
37279;Laerm;7458;49.002;8.472;2024-02-14T13:28:00;60.44;45.77;74.33;;
37279;Laerm;7458;49.002;8.472;2024-02-14T13:30:27;60.30;46.02;79.63;;
37279;Laerm;7458;49.002;8.472;2024-02-14T13:32:53;59.28;44.73;74.52;;
37279;Laerm;7458;49.002;8.472;2024-02-14T13:35:19;56.24;44.76;73.83;;
37279;Laerm;7458;49.002;8.472;2024-02-14T13:37:45;58.82;44.76;73.74;;
37279;Laerm;7458;49.002;8.472;2024-02-14T13:40:11;55.93;45.94;75.07;;
37279;Laerm;7458;49.002;8.472;2024-02-14T13:42:37;56.36;44.51;74.82;;
37279;Laerm;7458;49.002;8.472;2024-02-14T13:45:05;56.69;44.54;74.40;;
37279;Laerm;7458;49.002;8.472;2024-02-14T13:47:42;52.86;44.87;73.82;;
37279;Laerm;7458;49.002;8.472;2024-02-14T13:50:10;55.33;44.23;73.72;;
37279;Laerm;7458;49.002;8.472;2024-02-14T13:52:36;55.63;43.68;73.94;;
37279;Laerm;7458;49.002;8.472;2024-02-14T13:55:03;56.46;43.39;74.40;;
37279;Laerm;7458;49.002;8.472;2024-02-14T13:57:35;57.01;43.29;73.93;;